sensor_id;sensor_type;location;lat;lon;timestamp;P1;durP1;ratioP1;P2;durP2;ratioP2
63112;SDS011;49206;48.020;21.378;2023-06-19T00:00:44;11.98;;;9.80;;
63112;SDS011;49206;48.020;21.378;2023-06-19T00:01:47;14.85;;;10.07;;
63112;SDS011;49206;48.020;21.378;2023-06-19T00:02:49;11.30;;;10.00;;
63112;SDS011;49206;48.020;21.378;2023-06-19T00:03:52;13.27;;;10.88;;
63112;SDS011;49206;48.020;21.378;2023-06-19T00:04:54;12.13;;;10.25;;
63112;SDS011;49206;48.020;21.378;2023-06-19T00:05:57;14.05;;;10.98;;
63112;SDS011;49206;48.020;21.378;2023-06-19T00:06:59;11.52;;;9.55;;
63112;SDS011;49206;48.020;21.378;2023-06-19T00:08:02;13.80;;;10.52;;
63112;SDS011;49206;48.020;21.378;2023-06-19T00:09:07;12.05;;;9.45;;
63112;SDS011;49206;48.020;21.378;2023-06-19T00:10:09;15.32;;;10.82;;
63112;SDS011;49206;48.020;21.378;2023-06-19T00:11:14;14.07;;;10.30;;
63112;SDS011;49206;48.020;21.378;2023-06-19T00:12:16;14.50;;;10.20;;
63112;SDS011;49206;48.020;21.378;2023-06-19T00:13:19;13.57;;;9.82;;
63112;SDS011;49206;48.020;21.378;2023-06-19T00:14:21;11.63;;;10.35;;
63112;SDS011;49206;48.020;21.378;2023-06-19T00:15:41;13.23;;;10.10;;
63112;SDS011;49206;48.020;21.378;2023-06-19T00:16:44;11.57;;;9.73;;
63112;SDS011;49206;48.020;21.378;2023-06-19T00:17:49;13.65;;;10.45;;
63112;SDS011;49206;48.020;21.378;2023-06-19T00:18:51;14.60;;;10.30;;
63112;SDS011;49206;48.020;21.378;2023-06-19T00:19:57;12.20;;;9.65;;
63112;SDS011;49206;48.020;21.378;2023-06-19T00:21:00;11.82;;;10.38;;
63112;SDS011;49206;48.020;21.378;2023-06-19T00:22:03;14.40;;;10.07;;
63112;SDS011;49206;48.020;21.378;2023-06-19T00:23:05;12.93;;;9.85;;
63112;SDS011;49206;48.020;21.378;2023-06-19T00:24:13;12.55;;;9.63;;
63112;SDS011;49206;48.020;21.378;2023-06-19T00:25:15;12.23;;;9.35;;
63112;SDS011;49206;48.020;21.378;2023-06-19T00:26:18;11.80;;;10.32;;
63112;SDS011;49206;48.020;21.378;2023-06-19T00:27:24;13.18;;;9.55;;
63112;SDS011;49206;48.020;21.378;2023-06-19T00:29:31;14.20;;;10.43;;
63112;SDS011;49206;48.020;21.378;2023-06-19T00:30:36;12.07;;;9.93;;
63112;SDS011;49206;48.020;21.378;2023-06-19T00:31:41;14.35;;;9.80;;
63112;SDS011;49206;48.020;21.378;2023-06-19T00:32:43;12.23;;;10.15;;
63112;SDS011;49206;48.020;21.378;2023-06-19T00:33:48;13.32;;;9.63;;
63112;SDS011;49206;48.020;21.378;2023-06-19T00:34:52;11.38;;;9.70;;
63112;SDS011;49206;48.020;21.378;2023-06-19T00:35:54;12.70;;;10.52;;
63112;SDS011;49206;48.020;21.378;2023-06-19T00:36:58;12.68;;;9.60;;
63112;SDS011;49206;48.020;21.378;2023-06-19T00:38:00;10.65;;;9.52;;
63112;SDS011;49206;48.020;21.378;2023-06-19T00:39:03;12.35;;;9.43;;
63112;SDS011;49206;48.020;21.378;2023-06-19T00:40:06;11.63;;;9.27;;
63112;SDS011;49206;48.020;21.378;2023-06-19T00:41:10;12.43;;;9.63;;
63112;SDS011;49206;48.020;21.378;2023-06-19T00:42:12;13.18;;;9.80;;
63112;SDS011;49206;48.020;21.378;2023-06-19T00:43:15;11.68;;;9.32;;
63112;SDS011;49206;48.020;21.378;2023-06-19T00:44:17;11.55;;;9.80;;
63112;SDS011;49206;48.020;21.378;2023-06-19T00:45:20;10.88;;;9.15;;
63112;SDS011;49206;48.020;21.378;2023-06-19T00:46:22;11.63;;;9.75;;
63112;SDS011;49206;48.020;21.378;2023-06-19T00:47:25;13.32;;;9.82;;
63112;SDS011;49206;48.020;21.378;2023-06-19T00:48:28;14.18;;;10.02;;
63112;SDS011;49206;48.020;21.378;2023-06-19T00:49:32;11.63;;;10.02;;
63112;SDS011;49206;48.020;21.378;2023-06-19T00:50:35;14.50;;;10.10;;
63112;SDS011;49206;48.020;21.378;2023-06-19T00:52:41;12.32;;;9.32;;
63112;SDS011;49206;48.020;21.378;2023-06-19T00:53:45;13.10;;;10.35;;
63112;SDS011;49206;48.020;21.378;2023-06-19T00:54:47;12.65;;;10.15;;
63112;SDS011;49206;48.020;21.378;2023-06-19T00:55:50;13.43;;;9.98;;
63112;SDS011;49206;48.020;21.378;2023-06-19T00:56:56;11.75;;;9.98;;
63112;SDS011;49206;48.020;21.378;2023-06-19T00:57:59;13.07;;;9.82;;
63112;SDS011;49206;48.020;21.378;2023-06-19T00:59:03;12.52;;;10.50;;
63112;SDS011;49206;48.020;21.378;2023-06-19T01:00:09;10.80;;;9.68;;
63112;SDS011;49206;48.020;21.378;2023-06-19T01:01:15;13.35;;;9.93;;
63112;SDS011;49206;48.020;21.378;2023-06-19T01:02:17;12.77;;;9.63;;
63112;SDS011;49206;48.020;21.378;2023-06-19T01:03:22;13.48;;;10.77;;
63112;SDS011;49206;48.020;21.378;2023-06-19T01:04:28;10.82;;;9.50;;
63112;SDS011;49206;48.020;21.378;2023-06-19T01:05:31;13.13;;;9.75;;
63112;SDS011;49206;48.020;21.378;2023-06-19T01:06:37;12.38;;;9.90;;
63112;SDS011;49206;48.020;21.378;2023-06-19T01:09:03;12.63;;;10.32;;
63112;SDS011;49206;48.020;21.378;2023-06-19T01:10:10;12.45;;;10.05;;
63112;SDS011;49206;48.020;21.378;2023-06-19T01:11:17;13.20;;;10.07;;
63112;SDS011;49206;48.020;21.378;2023-06-19T01:12:30;13.80;;;9.80;;
63112;SDS011;49206;48.020;21.378;2023-06-19T01:13:37;11.82;;;9.60;;
63112;SDS011;49206;48.020;21.378;2023-06-19T01:14:48;13.77;;;10.27;;
63112;SDS011;49206;48.020;21.378;2023-06-19T01:15:54;11.85;;;9.40;;
63112;SDS011;49206;48.020;21.378;2023-06-19T01:16:58;13.82;;;10.45;;
63112;SDS011;49206;48.020;21.378;2023-06-19T01:18:01;12.88;;;10.80;;
63112;SDS011;49206;48.020;21.378;2023-06-19T01:19:04;12.48;;;10.85;;
63112;SDS011;49206;48.020;21.378;2023-06-19T01:20:07;13.02;;;11.07;;
63112;SDS011;49206;48.020;21.378;2023-06-19T01:21:14;12.63;;;10.38;;
63112;SDS011;49206;48.020;21.378;2023-06-19T01:23:27;14.57;;;10.77;;
63112;SDS011;49206;48.020;21.378;2023-06-19T01:24:29;11.75;;;10.15;;
63112;SDS011;49206;48.020;21.378;2023-06-19T01:25:32;12.30;;;10.45;;
63112;SDS011;49206;48.020;21.378;2023-06-19T01:26:34;12.63;;;10.57;;
63112;SDS011;49206;48.020;21.378;2023-06-19T01:27:38;11.40;;;9.63;;
63112;SDS011;49206;48.020;21.378;2023-06-19T01:28:41;12.85;;;10.75;;
63112;SDS011;49206;48.020;21.378;2023-06-19T01:29:45;12.70;;;10.68;;
63112;SDS011;49206;48.020;21.378;2023-06-19T01:30:48;12.95;;;9.48;;
63112;SDS011;49206;48.020;21.378;2023-06-19T01:33:06;12.77;;;10.48;;
63112;SDS011;49206;48.020;21.378;2023-06-19T01:34:11;12.15;;;10.30;;
63112;SDS011;49206;48.020;21.378;2023-06-19T01:35:15;13.93;;;10.60;;
63112;SDS011;49206;48.020;21.378;2023-06-19T01:36:18;13.40;;;10.75;;
63112;SDS011;49206;48.020;21.378;2023-06-19T01:37:21;15.85;;;10.35;;
63112;SDS011;49206;48.020;21.378;2023-06-19T01:38:24;13.90;;;9.93;;
63112;SDS011;49206;48.020;21.378;2023-06-19T01:39:28;11.77;;;9.70;;
63112;SDS011;49206;48.020;21.378;2023-06-19T01:40:31;12.32;;;10.63;;
63112;SDS011;49206;48.020;21.378;2023-06-19T01:41:33;14.07;;;10.93;;
63112;SDS011;49206;48.020;21.378;2023-06-19T01:42:37;14.35;;;9.77;;
63112;SDS011;49206;48.020;21.378;2023-06-19T01:43:41;11.73;;;10.07;;
63112;SDS011;49206;48.020;21.378;2023-06-19T01:44:45;12.00;;;10.73;;
63112;SDS011;49206;48.020;21.378;2023-06-19T01:45:49;13.40;;;11.43;;
63112;SDS011;49206;48.020;21.378;2023-06-19T01:46:51;12.43;;;10.40;;
63112;SDS011;49206;48.020;21.378;2023-06-19T01:47:54;14.63;;;11.75;;
63112;SDS011;49206;48.020;21.378;2023-06-19T01:48:57;14.35;;;11.40;;
63112;SDS011;49206;48.020;21.378;2023-06-19T01:50:01;13.88;;;10.40;;
63112;SDS011;49206;48.020;21.378;2023-06-19T01:51:03;13.27;;;10.85;;
63112;SDS011;49206;48.020;21.378;2023-06-19T01:52:06;13.35;;;10.30;;
63112;SDS011;49206;48.020;21.378;2023-06-19T01:53:09;12.95;;;11.35;;
63112;SDS011;49206;48.020;21.378;2023-06-19T01:54:12;14.32;;;11.40;;
63112;SDS011;49206;48.020;21.378;2023-06-19T01:55:15;13.10;;;10.73;;
63112;SDS011;49206;48.020;21.378;2023-06-19T01:56:17;13.85;;;11.35;;
63112;SDS011;49206;48.020;21.378;2023-06-19T01:57:20;12.82;;;10.43;;
63112;SDS011;49206;48.020;21.378;2023-06-19T01:58:23;15.20;;;10.98;;
63112;SDS011;49206;48.020;21.378;2023-06-19T01:59:25;14.80;;;10.85;;
63112;SDS011;49206;48.020;21.378;2023-06-19T02:00:28;12.75;;;10.50;;
63112;SDS011;49206;48.020;21.378;2023-06-19T02:01:32;12.45;;;11.07;;
63112;SDS011;49206;48.020;21.378;2023-06-19T02:02:36;13.70;;;11.93;;
63112;SDS011;49206;48.020;21.378;2023-06-19T02:03:39;13.43;;;10.77;;
63112;SDS011;49206;48.020;21.378;2023-06-19T02:04:41;13.63;;;10.88;;
63112;SDS011;49206;48.020;21.378;2023-06-19T02:05:44;17.58;;;10.95;;
63112;SDS011;49206;48.020;21.378;2023-06-19T02:06:46;14.52;;;11.05;;
63112;SDS011;49206;48.020;21.378;2023-06-19T02:07:49;13.27;;;11.10;;
63112;SDS011;49206;48.020;21.378;2023-06-19T02:08:52;12.13;;;10.18;;
63112;SDS011;49206;48.020;21.378;2023-06-19T02:09:54;11.95;;;9.70;;
63112;SDS011;49206;48.020;21.378;2023-06-19T02:10:57;12.55;;;10.68;;
63112;SDS011;49206;48.020;21.378;2023-06-19T02:11:59;15.18;;;11.63;;
63112;SDS011;49206;48.020;21.378;2023-06-19T02:13:02;13.82;;;10.98;;
63112;SDS011;49206;48.020;21.378;2023-06-19T02:14:08;14.43;;;11.48;;
63112;SDS011;49206;48.020;21.378;2023-06-19T02:15:12;15.32;;;11.13;;
63112;SDS011;49206;48.020;21.378;2023-06-19T02:16:14;15.38;;;11.80;;
63112;SDS011;49206;48.020;21.378;2023-06-19T02:17:17;13.98;;;11.13;;
63112;SDS011;49206;48.020;21.378;2023-06-19T02:18:20;16.33;;;11.00;;
63112;SDS011;49206;48.020;21.378;2023-06-19T02:19:22;14.75;;;11.15;;
63112;SDS011;49206;48.020;21.378;2023-06-19T02:20:25;14.70;;;10.90;;
63112;SDS011;49206;48.020;21.378;2023-06-19T02:21:30;16.48;;;11.63;;
63112;SDS011;49206;48.020;21.378;2023-06-19T02:22:33;16.73;;;11.13;;
63112;SDS011;49206;48.020;21.378;2023-06-19T02:23:35;13.75;;;10.55;;
63112;SDS011;49206;48.020;21.378;2023-06-19T02:24:38;11.90;;;9.75;;
63112;SDS011;49206;48.020;21.378;2023-06-19T02:25:46;11.55;;;10.30;;
63112;SDS011;49206;48.020;21.378;2023-06-19T02:26:50;12.90;;;10.10;;
63112;SDS011;49206;48.020;21.378;2023-06-19T02:27:53;13.48;;;10.75;;
63112;SDS011;49206;48.020;21.378;2023-06-19T02:28:56;14.85;;;11.35;;
63112;SDS011;49206;48.020;21.378;2023-06-19T02:29:58;13.85;;;11.02;;
63112;SDS011;49206;48.020;21.378;2023-06-19T02:31:01;14.82;;;11.57;;
63112;SDS011;49206;48.020;21.378;2023-06-19T02:32:04;12.85;;;10.43;;
63112;SDS011;49206;48.020;21.378;2023-06-19T02:33:08;20.73;;;10.90;;
63112;SDS011;49206;48.020;21.378;2023-06-19T02:34:11;13.80;;;10.60;;
63112;SDS011;49206;48.020;21.378;2023-06-19T02:35:13;14.32;;;11.63;;
63112;SDS011;49206;48.020;21.378;2023-06-19T02:36:17;13.38;;;10.95;;
63112;SDS011;49206;48.020;21.378;2023-06-19T02:37:21;12.95;;;11.57;;
63112;SDS011;49206;48.020;21.378;2023-06-19T02:38:24;13.05;;;11.07;;
63112;SDS011;49206;48.020;21.378;2023-06-19T02:39:29;15.00;;;11.73;;
63112;SDS011;49206;48.020;21.378;2023-06-19T02:40:31;15.38;;;11.07;;
63112;SDS011;49206;48.020;21.378;2023-06-19T02:41:34;14.38;;;11.63;;
63112;SDS011;49206;48.020;21.378;2023-06-19T02:42:38;16.20;;;12.60;;
63112;SDS011;49206;48.020;21.378;2023-06-19T02:43:40;16.25;;;11.70;;
63112;SDS011;49206;48.020;21.378;2023-06-19T02:44:44;17.50;;;13.63;;
63112;SDS011;49206;48.020;21.378;2023-06-19T02:45:47;23.02;;;16.13;;
63112;SDS011;49206;48.020;21.378;2023-06-19T02:46:50;20.95;;;15.73;;
63112;SDS011;49206;48.020;21.378;2023-06-19T02:47:52;19.08;;;13.10;;
63112;SDS011;49206;48.020;21.378;2023-06-19T02:48:55;14.27;;;12.00;;
63112;SDS011;49206;48.020;21.378;2023-06-19T02:49:58;16.42;;;13.35;;
63112;SDS011;49206;48.020;21.378;2023-06-19T02:51:01;20.30;;;15.02;;
63112;SDS011;49206;48.020;21.378;2023-06-19T02:52:04;16.38;;;14.05;;
63112;SDS011;49206;48.020;21.378;2023-06-19T02:53:07;16.52;;;12.50;;
63112;SDS011;49206;48.020;21.378;2023-06-19T02:54:10;16.67;;;13.13;;
63112;SDS011;49206;48.020;21.378;2023-06-19T02:55:12;17.30;;;11.48;;
63112;SDS011;49206;48.020;21.378;2023-06-19T02:56:15;18.35;;;12.98;;
63112;SDS011;49206;48.020;21.378;2023-06-19T02:57:19;14.27;;;11.57;;
63112;SDS011;49206;48.020;21.378;2023-06-19T02:58:21;17.58;;;13.63;;
63112;SDS011;49206;48.020;21.378;2023-06-19T02:59:24;16.60;;;11.90;;
63112;SDS011;49206;48.020;21.378;2023-06-19T03:00:26;14.65;;;11.55;;
63112;SDS011;49206;48.020;21.378;2023-06-19T03:01:32;15.43;;;11.88;;
63112;SDS011;49206;48.020;21.378;2023-06-19T03:02:38;17.50;;;12.02;;
63112;SDS011;49206;48.020;21.378;2023-06-19T03:03:45;14.55;;;11.40;;
63112;SDS011;49206;48.020;21.378;2023-06-19T03:04:48;17.63;;;12.02;;
63112;SDS011;49206;48.020;21.378;2023-06-19T03:05:51;15.88;;;12.05;;
63112;SDS011;49206;48.020;21.378;2023-06-19T03:06:54;15.60;;;12.38;;
63112;SDS011;49206;48.020;21.378;2023-06-19T03:07:57;19.33;;;12.77;;
63112;SDS011;49206;48.020;21.378;2023-06-19T03:08:59;16.33;;;13.35;;
63112;SDS011;49206;48.020;21.378;2023-06-19T03:10:03;17.35;;;12.77;;
63112;SDS011;49206;48.020;21.378;2023-06-19T03:11:06;15.35;;;12.20;;
63112;SDS011;49206;48.020;21.378;2023-06-19T03:12:09;15.25;;;11.93;;
63112;SDS011;49206;48.020;21.378;2023-06-19T03:13:13;16.42;;;11.93;;
63112;SDS011;49206;48.020;21.378;2023-06-19T03:15:18;14.13;;;10.50;;
63112;SDS011;49206;48.020;21.378;2023-06-19T03:16:24;13.63;;;11.35;;
63112;SDS011;49206;48.020;21.378;2023-06-19T03:17:27;13.07;;;10.27;;
63112;SDS011;49206;48.020;21.378;2023-06-19T03:18:29;12.20;;;10.32;;
63112;SDS011;49206;48.020;21.378;2023-06-19T03:19:32;12.98;;;10.40;;
63112;SDS011;49206;48.020;21.378;2023-06-19T03:20:36;15.98;;;11.80;;
63112;SDS011;49206;48.020;21.378;2023-06-19T03:21:39;13.20;;;10.82;;
63112;SDS011;49206;48.020;21.378;2023-06-19T03:22:42;14.70;;;10.85;;
63112;SDS011;49206;48.020;21.378;2023-06-19T03:23:47;15.52;;;10.70;;
63112;SDS011;49206;48.020;21.378;2023-06-19T03:24:50;15.57;;;10.75;;
63112;SDS011;49206;48.020;21.378;2023-06-19T03:25:56;14.82;;;10.93;;
63112;SDS011;49206;48.020;21.378;2023-06-19T03:26:59;14.15;;;11.43;;
63112;SDS011;49206;48.020;21.378;2023-06-19T03:28:02;14.75;;;10.95;;
63112;SDS011;49206;48.020;21.378;2023-06-19T03:29:05;14.73;;;11.77;;
63112;SDS011;49206;48.020;21.378;2023-06-19T03:30:24;15.18;;;11.05;;
63112;SDS011;49206;48.020;21.378;2023-06-19T03:31:27;15.05;;;12.10;;
63112;SDS011;49206;48.020;21.378;2023-06-19T03:32:30;14.48;;;12.02;;
63112;SDS011;49206;48.020;21.378;2023-06-19T03:33:34;16.95;;;11.75;;
63112;SDS011;49206;48.020;21.378;2023-06-19T03:34:37;15.13;;;11.88;;
63112;SDS011;49206;48.020;21.378;2023-06-19T03:35:43;13.30;;;10.93;;
63112;SDS011;49206;48.020;21.378;2023-06-19T03:36:54;13.45;;;10.80;;
63112;SDS011;49206;48.020;21.378;2023-06-19T03:37:57;17.75;;;11.52;;
63112;SDS011;49206;48.020;21.378;2023-06-19T03:38:59;14.50;;;11.93;;
63112;SDS011;49206;48.020;21.378;2023-06-19T03:40:04;14.25;;;11.13;;
63112;SDS011;49206;48.020;21.378;2023-06-19T03:41:12;16.73;;;11.15;;
63112;SDS011;49206;48.020;21.378;2023-06-19T03:42:15;14.18;;;10.40;;
63112;SDS011;49206;48.020;21.378;2023-06-19T03:43:18;16.05;;;11.15;;
63112;SDS011;49206;48.020;21.378;2023-06-19T03:44:20;15.15;;;11.52;;
63112;SDS011;49206;48.020;21.378;2023-06-19T03:45:23;19.08;;;12.30;;
63112;SDS011;49206;48.020;21.378;2023-06-19T03:46:25;14.98;;;11.73;;
63112;SDS011;49206;48.020;21.378;2023-06-19T03:47:28;16.95;;;11.07;;
63112;SDS011;49206;48.020;21.378;2023-06-19T03:48:31;15.75;;;12.02;;
63112;SDS011;49206;48.020;21.378;2023-06-19T03:49:35;15.88;;;11.57;;
63112;SDS011;49206;48.020;21.378;2023-06-19T03:50:37;16.38;;;12.80;;
63112;SDS011;49206;48.020;21.378;2023-06-19T03:51:41;14.65;;;11.95;;
63112;SDS011;49206;48.020;21.378;2023-06-19T03:52:44;14.68;;;11.50;;
63112;SDS011;49206;48.020;21.378;2023-06-19T03:53:46;17.27;;;12.10;;
63112;SDS011;49206;48.020;21.378;2023-06-19T03:54:51;16.23;;;12.63;;
63112;SDS011;49206;48.020;21.378;2023-06-19T03:55:54;15.45;;;11.48;;
63112;SDS011;49206;48.020;21.378;2023-06-19T03:56:57;16.63;;;12.02;;
63112;SDS011;49206;48.020;21.378;2023-06-19T03:58:03;17.35;;;12.25;;
63112;SDS011;49206;48.020;21.378;2023-06-19T03:59:06;14.50;;;11.88;;
63112;SDS011;49206;48.020;21.378;2023-06-19T04:00:09;15.20;;;11.90;;
63112;SDS011;49206;48.020;21.378;2023-06-19T04:01:15;16.58;;;11.38;;
63112;SDS011;49206;48.020;21.378;2023-06-19T04:02:18;16.52;;;12.23;;
63112;SDS011;49206;48.020;21.378;2023-06-19T04:03:21;16.65;;;11.75;;
63112;SDS011;49206;48.020;21.378;2023-06-19T04:04:24;16.83;;;11.60;;
63112;SDS011;49206;48.020;21.378;2023-06-19T04:05:26;14.90;;;11.63;;
63112;SDS011;49206;48.020;21.378;2023-06-19T04:06:29;14.57;;;12.02;;
63112;SDS011;49206;48.020;21.378;2023-06-19T04:07:31;13.25;;;11.73;;
63112;SDS011;49206;48.020;21.378;2023-06-19T04:08:34;16.67;;;12.82;;
63112;SDS011;49206;48.020;21.378;2023-06-19T04:09:36;15.35;;;11.30;;
63112;SDS011;49206;48.020;21.378;2023-06-19T04:10:39;14.50;;;11.77;;
63112;SDS011;49206;48.020;21.378;2023-06-19T04:11:41;16.63;;;12.15;;
63112;SDS011;49206;48.020;21.378;2023-06-19T04:12:44;14.63;;;11.77;;
63112;SDS011;49206;48.020;21.378;2023-06-19T04:13:47;15.52;;;12.10;;
63112;SDS011;49206;48.020;21.378;2023-06-19T04:14:50;18.23;;;12.20;;
63112;SDS011;49206;48.020;21.378;2023-06-19T04:16:56;12.80;;;10.63;;
63112;SDS011;49206;48.020;21.378;2023-06-19T04:17:59;14.18;;;11.57;;
63112;SDS011;49206;48.020;21.378;2023-06-19T04:19:04;16.08;;;11.65;;
63112;SDS011;49206;48.020;21.378;2023-06-19T04:20:07;18.77;;;12.40;;
63112;SDS011;49206;48.020;21.378;2023-06-19T04:21:14;14.05;;;11.93;;
63112;SDS011;49206;48.020;21.378;2023-06-19T04:22:17;14.68;;;12.00;;
63112;SDS011;49206;48.020;21.378;2023-06-19T04:23:19;16.27;;;11.50;;
63112;SDS011;49206;48.020;21.378;2023-06-19T04:24:24;15.05;;;12.38;;
63112;SDS011;49206;48.020;21.378;2023-06-19T04:25:27;13.98;;;11.30;;
63112;SDS011;49206;48.020;21.378;2023-06-19T04:26:30;15.15;;;12.10;;
63112;SDS011;49206;48.020;21.378;2023-06-19T04:27:34;13.93;;;11.32;;
63112;SDS011;49206;48.020;21.378;2023-06-19T04:28:37;15.77;;;11.43;;
63112;SDS011;49206;48.020;21.378;2023-06-19T04:29:41;14.88;;;11.07;;
63112;SDS011;49206;48.020;21.378;2023-06-19T04:30:43;13.05;;;11.18;;
63112;SDS011;49206;48.020;21.378;2023-06-19T04:31:46;16.35;;;11.10;;
63112;SDS011;49206;48.020;21.378;2023-06-19T04:32:51;13.63;;;11.88;;
63112;SDS011;49206;48.020;21.378;2023-06-19T04:33:58;14.63;;;11.15;;
63112;SDS011;49206;48.020;21.378;2023-06-19T04:35:01;16.02;;;12.57;;
63112;SDS011;49206;48.020;21.378;2023-06-19T04:36:03;16.58;;;12.10;;
63112;SDS011;49206;48.020;21.378;2023-06-19T04:37:06;15.23;;;11.90;;
63112;SDS011;49206;48.020;21.378;2023-06-19T04:38:09;14.43;;;12.13;;
63112;SDS011;49206;48.020;21.378;2023-06-19T04:39:12;14.82;;;10.68;;
63112;SDS011;49206;48.020;21.378;2023-06-19T04:40:14;13.25;;;10.82;;
63112;SDS011;49206;48.020;21.378;2023-06-19T04:41:17;14.18;;;11.77;;
63112;SDS011;49206;48.020;21.378;2023-06-19T04:42:19;13.15;;;10.27;;
63112;SDS011;49206;48.020;21.378;2023-06-19T04:43:22;15.77;;;11.55;;
63112;SDS011;49206;48.020;21.378;2023-06-19T04:44:27;13.48;;;11.20;;
63112;SDS011;49206;48.020;21.378;2023-06-19T04:45:29;15.35;;;11.35;;
63112;SDS011;49206;48.020;21.378;2023-06-19T04:46:31;14.30;;;11.00;;
63112;SDS011;49206;48.020;21.378;2023-06-19T04:47:34;14.55;;;10.85;;
63112;SDS011;49206;48.020;21.378;2023-06-19T04:48:52;13.80;;;11.32;;
63112;SDS011;49206;48.020;21.378;2023-06-19T04:49:56;14.88;;;11.85;;
63112;SDS011;49206;48.020;21.378;2023-06-19T04:50:59;15.45;;;11.35;;
63112;SDS011;49206;48.020;21.378;2023-06-19T04:52:04;13.57;;;10.50;;
63112;SDS011;49206;48.020;21.378;2023-06-19T04:53:07;13.80;;;10.13;;
63112;SDS011;49206;48.020;21.378;2023-06-19T04:54:10;14.63;;;10.70;;
63112;SDS011;49206;48.020;21.378;2023-06-19T04:55:12;14.50;;;10.88;;
63112;SDS011;49206;48.020;21.378;2023-06-19T04:56:15;15.40;;;11.07;;
63112;SDS011;49206;48.020;21.378;2023-06-19T04:57:17;14.93;;;10.32;;
63112;SDS011;49206;48.020;21.378;2023-06-19T04:58:21;15.20;;;10.50;;
63112;SDS011;49206;48.020;21.378;2023-06-19T04:59:27;13.57;;;10.10;;
63112;SDS011;49206;48.020;21.378;2023-06-19T05:00:29;15.82;;;10.43;;
63112;SDS011;49206;48.020;21.378;2023-06-19T05:01:32;14.63;;;10.18;;
63112;SDS011;49206;48.020;21.378;2023-06-19T05:02:34;11.50;;;10.30;;
63112;SDS011;49206;48.020;21.378;2023-06-19T05:03:42;12.20;;;10.23;;
63112;SDS011;49206;48.020;21.378;2023-06-19T05:04:48;13.35;;;10.15;;
63112;SDS011;49206;48.020;21.378;2023-06-19T05:05:50;12.07;;;10.20;;
63112;SDS011;49206;48.020;21.378;2023-06-19T05:06:55;18.88;;;12.18;;
63112;SDS011;49206;48.020;21.378;2023-06-19T05:07:59;13.10;;;9.98;;
63112;SDS011;49206;48.020;21.378;2023-06-19T05:10:04;13.65;;;10.05;;
63112;SDS011;49206;48.020;21.378;2023-06-19T05:11:07;18.23;;;10.30;;
63112;SDS011;49206;48.020;21.378;2023-06-19T05:12:10;13.23;;;10.80;;
63112;SDS011;49206;48.020;21.378;2023-06-19T05:13:13;14.38;;;9.88;;
63112;SDS011;49206;48.020;21.378;2023-06-19T05:14:15;10.95;;;9.02;;
63112;SDS011;49206;48.020;21.378;2023-06-19T05:15:18;11.50;;;9.73;;
63112;SDS011;49206;48.020;21.378;2023-06-19T05:16:21;12.88;;;10.35;;
63112;SDS011;49206;48.020;21.378;2023-06-19T05:17:25;12.93;;;9.95;;
63112;SDS011;49206;48.020;21.378;2023-06-19T05:18:27;15.45;;;10.70;;
63112;SDS011;49206;48.020;21.378;2023-06-19T05:19:30;11.95;;;10.25;;
63112;SDS011;49206;48.020;21.378;2023-06-19T05:20:32;15.32;;;11.05;;
63112;SDS011;49206;48.020;21.378;2023-06-19T05:21:35;12.13;;;10.50;;
63112;SDS011;49206;48.020;21.378;2023-06-19T05:22:38;12.95;;;9.80;;
63112;SDS011;49206;48.020;21.378;2023-06-19T05:23:40;12.52;;;9.88;;
63112;SDS011;49206;48.020;21.378;2023-06-19T05:24:42;13.35;;;11.07;;
63112;SDS011;49206;48.020;21.378;2023-06-19T05:25:45;14.70;;;11.13;;
63112;SDS011;49206;48.020;21.378;2023-06-19T05:26:48;13.05;;;10.13;;
63112;SDS011;49206;48.020;21.378;2023-06-19T05:27:50;13.32;;;11.00;;
63112;SDS011;49206;48.020;21.378;2023-06-19T05:28:53;11.88;;;9.73;;
63112;SDS011;49206;48.020;21.378;2023-06-19T05:29:55;13.05;;;9.73;;
63112;SDS011;49206;48.020;21.378;2023-06-19T05:30:58;12.23;;;9.30;;
63112;SDS011;49206;48.020;21.378;2023-06-19T05:32:00;11.38;;;9.77;;
63112;SDS011;49206;48.020;21.378;2023-06-19T05:33:02;15.05;;;10.75;;
63112;SDS011;49206;48.020;21.378;2023-06-19T05:34:05;12.77;;;9.38;;
63112;SDS011;49206;48.020;21.378;2023-06-19T05:35:08;11.90;;;9.52;;
63112;SDS011;49206;48.020;21.378;2023-06-19T05:36:10;11.73;;;9.43;;
63112;SDS011;49206;48.020;21.378;2023-06-19T05:37:13;11.73;;;9.50;;
63112;SDS011;49206;48.020;21.378;2023-06-19T05:38:15;11.80;;;9.00;;
63112;SDS011;49206;48.020;21.378;2023-06-19T05:39:18;10.38;;;8.73;;
63112;SDS011;49206;48.020;21.378;2023-06-19T05:40:20;13.77;;;8.70;;
63112;SDS011;49206;48.020;21.378;2023-06-19T05:41:24;11.85;;;9.38;;
63112;SDS011;49206;48.020;21.378;2023-06-19T05:42:26;13.32;;;8.95;;
63112;SDS011;49206;48.020;21.378;2023-06-19T05:43:29;10.90;;;9.20;;
63112;SDS011;49206;48.020;21.378;2023-06-19T05:44:32;12.63;;;9.20;;
63112;SDS011;49206;48.020;21.378;2023-06-19T05:45:35;12.35;;;9.52;;
63112;SDS011;49206;48.020;21.378;2023-06-19T05:46:37;11.50;;;9.55;;
63112;SDS011;49206;48.020;21.378;2023-06-19T05:47:40;11.30;;;9.55;;
63112;SDS011;49206;48.020;21.378;2023-06-19T05:48:42;11.13;;;8.27;;
63112;SDS011;49206;48.020;21.378;2023-06-19T05:49:45;9.88;;;8.18;;
63112;SDS011;49206;48.020;21.378;2023-06-19T05:50:48;12.85;;;8.93;;
63112;SDS011;49206;48.020;21.378;2023-06-19T05:51:51;11.20;;;9.07;;
63112;SDS011;49206;48.020;21.378;2023-06-19T05:52:53;12.10;;;8.73;;
63112;SDS011;49206;48.020;21.378;2023-06-19T05:53:56;15.57;;;9.20;;
63112;SDS011;49206;48.020;21.378;2023-06-19T05:55:03;12.50;;;8.73;;
63112;SDS011;49206;48.020;21.378;2023-06-19T05:56:06;12.00;;;8.52;;
63112;SDS011;49206;48.020;21.378;2023-06-19T05:57:10;11.20;;;8.80;;
63112;SDS011;49206;48.020;21.378;2023-06-19T05:58:13;13.23;;;9.30;;
63112;SDS011;49206;48.020;21.378;2023-06-19T05:59:16;9.73;;;8.23;;
63112;SDS011;49206;48.020;21.378;2023-06-19T06:00:18;11.10;;;8.55;;
63112;SDS011;49206;48.020;21.378;2023-06-19T06:01:21;10.55;;;9.15;;
63112;SDS011;49206;48.020;21.378;2023-06-19T06:02:26;10.75;;;9.32;;
63112;SDS011;49206;48.020;21.378;2023-06-19T06:03:30;9.52;;;8.40;;
63112;SDS011;49206;48.020;21.378;2023-06-19T06:04:33;11.38;;;8.75;;
63112;SDS011;49206;48.020;21.378;2023-06-19T06:05:39;11.45;;;9.10;;
63112;SDS011;49206;48.020;21.378;2023-06-19T06:06:42;10.02;;;8.50;;
63112;SDS011;49206;48.020;21.378;2023-06-19T06:07:44;12.10;;;8.63;;
63112;SDS011;49206;48.020;21.378;2023-06-19T06:08:49;9.25;;;7.70;;
63112;SDS011;49206;48.020;21.378;2023-06-19T06:09:53;9.90;;;8.52;;
63112;SDS011;49206;48.020;21.378;2023-06-19T06:10:55;10.85;;;9.25;;
63112;SDS011;49206;48.020;21.378;2023-06-19T06:11:58;9.95;;;8.65;;
63112;SDS011;49206;48.020;21.378;2023-06-19T06:13:01;11.05;;;8.73;;
63112;SDS011;49206;48.020;21.378;2023-06-19T06:14:03;9.77;;;8.77;;
63112;SDS011;49206;48.020;21.378;2023-06-19T06:15:06;9.80;;;8.68;;
63112;SDS011;49206;48.020;21.378;2023-06-19T06:16:09;10.00;;;7.78;;
63112;SDS011;49206;48.020;21.378;2023-06-19T06:17:11;11.50;;;9.13;;